Heart's Desire, Canada
Current Conditions -  °F | °C
As of 3:00 PM on Thursday 29 Jan 2015 (Local Time) from CYYT Reporting Station
Broken Clouds Broken Clouds  
Wind Chill: 27°   Ceiling: 19000
Heat Index: 36°   Visibility: 15mi
Dew Point: 32°   Wind: 14mph
Humidity: 87%   Direction: 270°W
Pressure: 29.99"   Gusts: NA
Location:  47.82°N, 53.45°W
Report Text: CYYT 291800Z 27012KT 15SM SCT012 BKN190 02/00 A2999 RMK SC4AC3 SLP163
Loading
Personal Weather Stations






























Interactive Weather Map New forecast layout! Learn more

10-Day Weather Forecast

Advertisements
Track Severe Weather on mobile